createdAt,value
2023-05-03T00:02:10.635Z,11.43
2023-05-03T00:04:37.826Z,11.37
2023-05-03T00:07:04.754Z,11.35
2023-05-03T00:09:34.039Z,11.29
2023-05-03T00:12:01.717Z,11.25
2023-05-03T00:14:28.911Z,11.14
2023-05-03T00:16:56.081Z,11.20
2023-05-03T00:19:31.490Z,11.08
2023-05-03T00:21:59.319Z,10.98
2023-05-03T00:24:26.880Z,10.98
2023-05-03T00:26:53.789Z,10.92
2023-05-03T00:29:23.030Z,10.98
2023-05-03T00:31:50.177Z,10.87
2023-05-03T00:34:17.144Z,10.85
2023-05-03T00:36:44.130Z,10.82
2023-05-03T00:39:11.613Z,10.75
2023-05-03T00:41:39.134Z,10.60
2023-05-03T00:44:06.159Z,10.50
2023-05-03T00:46:33.125Z,10.42
2023-05-03T00:49:00.152Z,10.40
2023-05-03T00:51:27.947Z,10.34
2023-05-03T00:53:54.895Z,10.33
2023-05-03T00:56:23.445Z,10.46
2023-05-03T00:58:53.605Z,10.54
2023-05-03T01:01:20.667Z,10.58
2023-05-03T01:03:47.946Z,10.59
2023-05-03T01:06:18.144Z,10.55
2023-05-03T01:08:48.564Z,10.54
2023-05-03T01:11:23.398Z,10.37
2023-05-03T01:14:01.203Z,10.45
2023-05-03T01:16:49.982Z,10.44
2023-05-03T01:19:42.789Z,10.49
2023-05-03T01:22:34.230Z,10.47
2023-05-03T01:25:09.327Z,10.46
2023-05-03T01:27:36.855Z,10.41
2023-05-03T01:30:09.461Z,10.33
2023-05-03T01:32:40.285Z,10.22
2023-05-03T01:35:20.333Z,10.02
2023-05-03T01:37:48.264Z,10.04
2023-05-03T01:40:16.974Z,9.98
2023-05-03T01:42:43.820Z,9.96
2023-05-03T01:45:11.186Z,9.89
2023-05-03T01:47:38.058Z,9.90
2023-05-03T01:50:05.352Z,9.95
2023-05-03T01:52:32.576Z,9.98
2023-05-03T01:55:00.207Z,10.05
2023-05-03T01:57:27.091Z,10.04
2023-05-03T01:59:54.081Z,10.09
2023-05-03T02:02:22.509Z,9.94
2023-05-03T02:04:49.828Z,9.85
2023-05-03T02:07:16.980Z,9.90
2023-05-03T02:09:45.828Z,9.74
2023-05-03T02:12:12.979Z,9.52
2023-05-03T02:14:40.138Z,9.58
2023-05-03T02:17:08.668Z,9.49
2023-05-03T02:19:35.865Z,9.49
2023-05-03T02:22:03.173Z,9.49
2023-05-03T02:24:31.218Z,9.50
2023-05-03T02:26:58.100Z,9.46
2023-05-03T02:29:25.076Z,9.43
2023-05-03T02:31:52.566Z,9.45
2023-05-03T02:34:19.458Z,9.41
2023-05-03T02:36:47.544Z,9.37
2023-05-03T02:39:15.106Z,9.40
2023-05-03T02:41:42.142Z,9.30
2023-05-03T02:44:09.174Z,9.37
2023-05-03T02:46:36.512Z,9.44
2023-05-03T02:49:03.842Z,9.40
2023-05-03T02:51:31.201Z,9.34
2023-05-03T02:53:58.171Z,9.29
2023-05-03T02:56:26.643Z,9.29
2023-05-03T02:58:53.679Z,9.26
2023-05-03T03:01:21.821Z,9.20
2023-05-03T03:03:48.892Z,9.28
2023-05-03T03:06:16.099Z,9.39
2023-05-03T03:08:43.056Z,9.38
2023-05-03T03:11:09.968Z,9.45
2023-05-03T03:13:39.889Z,9.56
2023-05-03T03:16:07.909Z,9.67
2023-05-03T03:18:35.921Z,9.78
2023-05-03T03:21:03.446Z,9.83
2023-05-03T03:23:30.651Z,9.71
2023-05-03T03:25:58.032Z,9.77
2023-05-03T03:28:25.371Z,9.91
2023-05-03T03:30:52.676Z,9.92
2023-05-03T03:33:24.690Z,10.07
2023-05-03T03:35:52.420Z,10.20
2023-05-03T03:38:19.628Z,10.47
2023-05-03T03:40:50.476Z,10.66
2023-05-03T03:43:17.638Z,10.77
2023-05-03T03:45:45.052Z,10.96
2023-05-03T03:48:12.948Z,11.15
2023-05-03T03:50:40.058Z,11.33
2023-05-03T03:53:07.146Z,11.49
2023-05-03T03:55:34.103Z,11.57
2023-05-03T03:58:01.593Z,11.66
2023-05-03T04:00:28.998Z,11.81
2023-05-03T04:03:01.225Z,11.96
2023-05-03T04:05:28.391Z,12.06
2023-05-03T04:07:55.561Z,12.15
2023-05-03T04:10:23.555Z,12.17
2023-05-03T04:12:50.628Z,12.30
2023-05-03T04:15:17.722Z,12.32
2023-05-03T04:17:45.213Z,12.39
2023-05-03T04:20:14.002Z,12.50
2023-05-03T04:22:43.236Z,12.56
2023-05-03T04:25:14.186Z,12.60
2023-05-03T04:27:41.870Z,12.69
2023-05-03T04:30:09.838Z,12.82
2023-05-03T04:32:37.567Z,12.95
2023-05-03T04:35:10.850Z,12.99
2023-05-03T04:37:38.736Z,12.96
2023-05-03T04:40:12.303Z,13.09
2023-05-03T04:42:42.582Z,13.22
2023-05-03T04:45:10.973Z,13.29
2023-05-03T04:47:38.080Z,13.39
2023-05-03T04:50:05.944Z,13.31
2023-05-03T04:52:33.203Z,13.42
2023-05-03T04:55:00.515Z,13.38
2023-05-03T04:57:27.651Z,13.46
2023-05-03T04:59:55.211Z,13.70
2023-05-03T05:02:23.010Z,13.67
2023-05-03T05:04:50.076Z,13.67
2023-05-03T05:07:18.000Z,13.73
2023-05-03T05:09:45.331Z,13.84
2023-05-03T05:12:12.649Z,13.95
2023-05-03T05:14:41.286Z,14.11
2023-05-03T05:17:08.450Z,14.25
2023-05-03T05:19:36.073Z,14.24
2023-05-03T05:22:03.066Z,14.33
2023-05-03T05:24:38.513Z,14.44
2023-05-03T05:27:06.802Z,14.51
2023-05-03T05:29:34.127Z,14.69
2023-05-03T05:32:03.581Z,14.92
2023-05-03T05:34:39.139Z,15.12
2023-05-03T05:37:11.617Z,15.25
2023-05-03T05:39:39.141Z,15.27
2023-05-03T05:42:06.871Z,15.33
2023-05-03T05:44:34.182Z,15.57
2023-05-03T05:47:05.489Z,15.79
2023-05-03T05:49:35.079Z,15.75
2023-05-03T05:52:04.348Z,15.85
2023-05-03T05:54:31.355Z,16.02
2023-05-03T05:56:58.844Z,16.08
2023-05-03T05:59:31.530Z,16.14
2023-05-03T06:02:04.445Z,16.29
2023-05-03T06:04:32.075Z,16.40
2023-05-03T06:06:59.566Z,16.60
2023-05-03T06:09:27.098Z,16.71
2023-05-03T06:11:57.675Z,16.84
2023-05-03T06:14:27.063Z,16.92
2023-05-03T06:16:54.923Z,17.06
2023-05-03T06:19:25.412Z,17.15
2023-05-03T06:21:52.546Z,17.17
2023-05-03T06:24:21.490Z,17.23
2023-05-03T06:26:53.547Z,17.38
2023-05-03T06:29:23.057Z,17.46
2023-05-03T06:31:50.201Z,17.58
2023-05-03T06:34:20.510Z,17.65
2023-05-03T06:36:49.569Z,17.68
2023-05-03T06:39:18.591Z,17.54
2023-05-03T06:41:46.024Z,17.49
2023-05-03T06:44:13.531Z,17.49
2023-05-03T06:46:41.948Z,17.49
2023-05-03T06:49:27.004Z,17.44
2023-05-03T06:51:54.314Z,17.39
2023-05-03T06:54:29.015Z,17.44
2023-05-03T06:56:56.610Z,17.44
2023-05-03T06:59:24.662Z,17.47
2023-05-03T07:01:51.900Z,17.43
2023-05-03T07:04:19.235Z,17.67
2023-05-03T07:06:55.976Z,17.67
2023-05-03T07:09:41.530Z,17.76
2023-05-03T07:12:12.373Z,17.69
2023-05-03T07:14:40.842Z,17.79
2023-05-03T07:17:08.964Z,17.93
2023-05-03T07:19:37.676Z,17.99
2023-05-03T07:22:05.638Z,17.96
2023-05-03T07:24:33.169Z,17.84
2023-05-03T07:27:05.632Z,17.96
2023-05-03T07:29:33.206Z,17.89
2023-05-03T07:32:00.405Z,17.71
2023-05-03T07:34:30.799Z,17.76
2023-05-03T07:36:58.304Z,17.81
2023-05-03T07:39:25.337Z,17.73
2023-05-03T07:41:52.559Z,17.64
2023-05-03T07:44:19.639Z,17.76
2023-05-03T07:46:46.734Z,17.71
2023-05-03T07:49:13.970Z,17.62
2023-05-03T07:51:41.834Z,17.61
2023-05-03T07:54:09.106Z,17.66
2023-05-03T07:56:36.690Z,17.56
2023-05-03T07:59:09.916Z,17.75
2023-05-03T08:01:38.311Z,17.93
2023-05-03T08:04:09.262Z,18.01
2023-05-03T08:06:38.724Z,17.98
2023-05-03T08:09:06.053Z,17.86
2023-05-03T08:11:33.226Z,17.84
2023-05-03T08:14:00.379Z,17.78
2023-05-03T08:16:27.707Z,17.84
2023-05-03T08:18:54.754Z,17.90
2023-05-03T08:21:24.888Z,17.97
2023-05-03T08:23:52.635Z,17.86
2023-05-03T08:26:19.780Z,17.85
2023-05-03T08:28:47.973Z,17.88
2023-05-03T08:31:15.264Z,17.79
2023-05-03T08:33:43.040Z,17.85
2023-05-03T08:36:13.346Z,17.87
2023-05-03T08:38:41.515Z,17.93
2023-05-03T08:41:17.608Z,17.99
2023-05-03T08:43:47.891Z,18.07
2023-05-03T08:46:18.773Z,18.01
2023-05-03T08:48:50.063Z,17.96
2023-05-03T08:51:17.640Z,17.96
2023-05-03T08:53:46.528Z,18.08
2023-05-03T08:56:29.812Z,18.13
2023-05-03T08:58:57.428Z,18.16
2023-05-03T09:01:24.633Z,18.11
2023-05-03T09:03:52.240Z,18.11
2023-05-03T09:06:27.866Z,18.11
2023-05-03T09:08:55.617Z,18.04
2023-05-03T09:11:32.621Z,17.98
2023-05-03T09:14:15.780Z,17.97
2023-05-03T09:16:46.469Z,17.91
2023-05-03T09:19:14.822Z,17.89
2023-05-03T09:21:42.973Z,17.90
2023-05-03T09:24:28.273Z,17.91
2023-05-03T09:26:58.643Z,17.96
2023-05-03T09:29:31.829Z,17.97
2023-05-03T09:32:06.065Z,18.01
2023-05-03T09:34:34.697Z,18.07
2023-05-03T09:37:02.140Z,18.15
2023-05-03T09:39:29.626Z,18.13
2023-05-03T09:41:56.752Z,18.14
2023-05-03T09:44:52.003Z,18.15
2023-05-03T09:47:19.070Z,18.21
2023-05-03T09:49:46.253Z,18.26
2023-05-03T09:52:13.371Z,18.29
2023-05-03T09:54:41.040Z,18.25
2023-05-03T09:57:15.583Z,18.19
2023-05-03T09:59:46.006Z,17.93
2023-05-03T10:02:19.653Z,17.90
2023-05-03T10:04:52.052Z,17.92
2023-05-03T10:07:19.600Z,17.93
2023-05-03T10:09:49.908Z,17.93
2023-05-03T10:12:17.891Z,17.93
2023-05-03T10:14:46.864Z,17.86
2023-05-03T10:17:42.910Z,17.80
2023-05-03T10:20:30.380Z,17.72
2023-05-03T10:23:07.251Z,17.72
2023-05-03T10:25:36.079Z,17.68
2023-05-03T10:28:10.322Z,17.62
2023-05-03T10:30:39.899Z,17.63
2023-05-03T10:33:10.006Z,17.65
2023-05-03T10:35:42.221Z,17.64
2023-05-03T10:38:29.042Z,17.72
2023-05-03T10:40:56.693Z,17.78
2023-05-03T10:43:33.149Z,17.84
2023-05-03T10:46:05.201Z,17.80
2023-05-03T10:48:33.554Z,17.81
2023-05-03T10:51:42.344Z,17.82
2023-05-03T10:54:13.162Z,17.77
2023-05-03T10:56:54.506Z,17.84
2023-05-03T10:59:22.381Z,17.93
2023-05-03T11:01:53.425Z,18.03
2023-05-03T11:04:34.087Z,18.10
2023-05-03T11:07:02.013Z,18.14
2023-05-03T11:09:33.599Z,18.14
2023-05-03T11:12:11.501Z,18.16
2023-05-03T11:14:42.473Z,18.16
2023-05-03T11:17:09.737Z,18.14
2023-05-03T11:19:38.052Z,18.18
2023-05-03T11:22:09.889Z,18.15
2023-05-03T11:24:40.364Z,18.12
2023-05-03T11:27:12.064Z,18.04
2023-05-03T11:29:45.805Z,18.09
2023-05-03T11:32:16.285Z,18.06
2023-05-03T11:34:43.832Z,18.06
2023-05-03T11:37:11.130Z,18.09
2023-05-03T11:39:38.615Z,17.95
2023-05-03T11:42:08.946Z,17.88
2023-05-03T11:44:37.984Z,17.75
2023-05-03T11:47:06.285Z,17.73
2023-05-03T11:49:34.484Z,17.71
2023-05-03T11:52:06.484Z,17.71
2023-05-03T11:54:38.092Z,17.78
2023-05-03T11:57:12.566Z,17.76
2023-05-03T11:59:39.951Z,17.68
2023-05-03T12:02:10.675Z,17.71
2023-05-03T12:04:42.181Z,17.71
2023-05-03T12:07:11.282Z,17.78
2023-05-03T12:09:40.219Z,17.80
2023-05-03T12:12:10.715Z,17.84
2023-05-03T12:15:00.138Z,17.75
2023-05-03T12:18:00.138Z,17.64
2023-05-03T12:23:04.189Z,17.78
2023-05-03T12:25:38.822Z,17.76
2023-05-03T12:30:40.417Z,17.67
2023-05-03T12:33:11.230Z,17.70
2023-05-03T12:35:40.777Z,17.68
2023-05-03T12:38:09.645Z,17.65
2023-05-03T12:40:37.816Z,17.62
2023-05-03T12:43:05.449Z,17.57
2023-05-03T12:45:46.514Z,17.56
2023-05-03T12:48:17.775Z,17.64
2023-05-03T12:50:45.832Z,17.54
2023-05-03T12:53:17.552Z,17.58
2023-05-03T12:55:49.538Z,17.51
2023-05-03T13:01:37.081Z,17.50
2023-05-03T13:03:43.036Z,17.46
2023-05-03T13:06:19.770Z,17.42
2023-05-03T13:09:19.321Z,17.51
2023-05-03T13:15:10.609Z,17.56
2023-05-03T13:17:38.177Z,17.55
2023-05-03T13:20:07.752Z,17.56
2023-05-03T13:22:35.003Z,17.57
2023-05-03T13:25:03.772Z,17.53
2023-05-03T13:27:31.204Z,17.47
2023-05-03T13:29:58.412Z,17.50
2023-05-03T13:32:26.031Z,17.48
2023-05-03T13:34:53.176Z,17.48
2023-05-03T13:37:20.713Z,17.49
2023-05-03T13:39:47.943Z,17.52
2023-05-03T13:42:16.052Z,17.51
2023-05-03T13:44:50.497Z,17.56
2023-05-03T13:47:17.778Z,17.54
2023-05-03T13:49:44.963Z,17.53
2023-05-03T13:52:12.433Z,17.58
2023-05-03T13:54:39.648Z,17.55
2023-05-03T13:57:11.113Z,17.59
2023-05-03T13:59:38.387Z,17.67
2023-05-03T14:02:05.738Z,17.68
2023-05-03T14:04:32.945Z,17.63
2023-05-03T14:07:03.033Z,17.51
2023-05-03T14:09:30.847Z,17.44
2023-05-03T14:11:58.049Z,17.51
2023-05-03T14:14:27.237Z,17.48
2023-05-03T14:16:54.572Z,17.49
2023-05-03T14:19:24.897Z,17.44
2023-05-03T14:21:55.215Z,17.32
2023-05-03T14:24:22.521Z,17.39
2023-05-03T14:26:49.535Z,17.31
2023-05-03T14:29:16.680Z,17.28
2023-05-03T14:38:26.048Z,17.20
2023-05-03T14:43:59.451Z,17.12
2023-05-03T14:46:36.586Z,17.10
2023-05-03T14:52:17.392Z,16.84
2023-05-03T15:01:44.437Z,16.95
2023-05-03T15:04:12.096Z,17.03
2023-05-03T15:06:39.832Z,16.87
2023-05-03T15:09:08.652Z,16.84
2023-05-03T15:11:35.614Z,16.83
2023-05-03T15:14:05.344Z,16.71
2023-05-03T15:16:32.316Z,16.68
2023-05-03T15:19:00.654Z,16.74
2023-05-03T15:21:28.609Z,16.74
2023-05-03T15:23:55.650Z,16.58
2023-05-03T15:26:22.784Z,16.53
2023-05-03T15:28:50.196Z,16.56
2023-05-03T15:31:17.703Z,16.56
2023-05-03T15:33:45.022Z,16.62
2023-05-03T15:36:12.692Z,16.61
2023-05-03T15:38:40.680Z,16.43
2023-05-03T15:41:08.841Z,16.52
2023-05-03T15:43:41.041Z,16.65
2023-05-03T15:46:08.389Z,16.70
2023-05-03T15:48:35.398Z,16.32
2023-05-03T15:51:02.546Z,16.27
2023-05-03T15:53:30.005Z,16.39
2023-05-03T15:55:57.756Z,16.26
2023-05-03T15:58:25.557Z,16.20
2023-05-03T16:00:52.925Z,16.10
2023-05-03T16:03:21.862Z,16.04
2023-05-03T16:05:48.906Z,16.02
2023-05-03T16:08:15.976Z,16.09
2023-05-03T16:10:43.037Z,16.11
2023-05-03T16:13:10.600Z,16.15
2023-05-03T16:15:38.198Z,16.05
2023-05-03T16:18:05.562Z,16.04
2023-05-03T16:20:32.822Z,16.10
2023-05-03T16:22:59.846Z,16.18
2023-05-03T16:25:28.694Z,16.17
2023-05-03T16:27:55.768Z,15.97
2023-05-03T16:30:22.848Z,15.82
2023-05-03T16:32:49.794Z,15.82
2023-05-03T16:35:16.748Z,15.96
2023-05-03T16:37:43.827Z,15.94
2023-05-03T16:40:11.633Z,15.90
2023-05-03T16:42:39.183Z,15.62
2023-05-03T16:45:10.905Z,15.60
2023-05-03T16:47:38.356Z,15.48
2023-05-03T16:50:07.901Z,15.32
2023-05-03T16:52:43.462Z,15.25
2023-05-03T16:55:11.112Z,15.24
2023-05-03T16:57:38.184Z,15.23
2023-05-03T17:00:09.564Z,15.31
2023-05-03T17:02:37.689Z,15.30
2023-05-03T17:05:05.312Z,15.31
2023-05-03T17:07:33.206Z,15.29
2023-05-03T17:10:00.647Z,15.23
2023-05-03T17:12:28.766Z,15.08
2023-05-03T17:14:55.772Z,15.12
2023-05-03T17:17:22.921Z,14.98
2023-05-03T17:19:53.795Z,14.95
2023-05-03T17:22:21.038Z,14.97
2023-05-03T17:24:48.052Z,14.99
2023-05-03T17:27:15.171Z,14.94
2023-05-03T17:29:45.467Z,14.87
2023-05-03T17:32:12.456Z,14.82
2023-05-03T17:34:40.015Z,14.68
2023-05-03T17:37:07.183Z,14.72
2023-05-03T17:39:34.178Z,14.59
2023-05-03T17:42:01.726Z,14.55
2023-05-03T17:44:29.015Z,14.49
2023-05-03T17:46:56.086Z,14.49
2023-05-03T17:49:23.609Z,14.41
2023-05-03T17:51:50.667Z,14.33
2023-05-03T17:54:17.737Z,14.33
2023-05-03T17:56:45.191Z,14.36
2023-05-03T17:59:12.090Z,14.30
2023-05-03T18:01:39.059Z,14.28
2023-05-03T18:04:06.050Z,14.16
2023-05-03T18:06:33.199Z,14.22
2023-05-03T18:09:00.164Z,14.22
2023-05-03T18:11:27.379Z,14.21
2023-05-03T18:13:54.401Z,14.08
2023-05-03T18:16:21.403Z,14.08
2023-05-03T18:18:48.527Z,14.03
2023-05-03T18:21:15.544Z,14.03
2023-05-03T18:23:44.294Z,14.03
2023-05-03T18:26:11.491Z,13.99
2023-05-03T18:28:38.492Z,14.00
2023-05-03T18:31:05.549Z,13.88
2023-05-03T18:33:32.959Z,13.85
2023-05-03T18:35:59.923Z,13.79
2023-05-03T18:38:26.971Z,13.72
2023-05-03T18:40:55.934Z,13.71
2023-05-03T18:43:22.964Z,13.71
2023-05-03T18:45:50.013Z,13.71
2023-05-03T18:48:17.098Z,13.66
2023-05-03T18:50:44.238Z,13.65
2023-05-03T18:53:11.240Z,13.64
2023-05-03T18:55:38.407Z,13.64
2023-05-03T18:58:05.681Z,13.63
2023-05-03T19:00:32.596Z,13.50
2023-05-03T19:02:59.614Z,13.50
2023-05-03T19:05:26.698Z,13.52
2023-05-03T19:07:53.565Z,13.46
2023-05-03T19:10:21.080Z,13.44
2023-05-03T19:12:48.154Z,13.43
2023-05-03T19:15:15.253Z,13.40
2023-05-03T19:17:42.680Z,13.40
2023-05-03T19:20:12.520Z,13.41
2023-05-03T19:22:39.464Z,13.41
2023-05-03T19:25:06.873Z,13.33
2023-05-03T19:27:33.881Z,13.26
2023-05-03T19:30:00.837Z,13.24
2023-05-03T19:32:27.858Z,13.16
2023-05-03T19:34:54.827Z,13.20
2023-05-03T19:37:21.915Z,13.22
2023-05-03T19:39:48.847Z,13.22
2023-05-03T19:42:16.127Z,13.17
2023-05-03T19:44:43.053Z,13.15
2023-05-03T19:47:10.215Z,13.04
2023-05-03T19:49:37.804Z,12.95
2023-05-03T19:52:06.097Z,12.98
2023-05-03T19:54:33.291Z,12.90
2023-05-03T19:57:06.124Z,12.80
2023-05-03T19:59:33.449Z,12.91
2023-05-03T20:02:00.436Z,12.92
2023-05-03T20:04:27.684Z,12.91
2023-05-03T20:06:54.689Z,12.91
2023-05-03T20:09:23.486Z,12.89
2023-05-03T20:11:55.825Z,12.89
2023-05-03T20:14:22.957Z,12.80
2023-05-03T20:16:49.800Z,12.72
2023-05-03T20:19:16.693Z,12.72
2023-05-03T20:21:44.722Z,12.69
2023-05-03T20:24:11.659Z,12.74
2023-05-03T20:26:38.725Z,12.73
2023-05-03T20:29:05.779Z,12.66
2023-05-03T20:31:33.025Z,12.66
2023-05-03T20:34:00.479Z,12.61
2023-05-03T20:36:28.088Z,12.54
2023-05-03T20:38:55.711Z,12.40
2023-05-03T20:41:23.108Z,12.37
2023-05-03T20:43:52.015Z,12.32
2023-05-03T20:46:19.244Z,12.29
2023-05-03T20:48:46.304Z,12.31
2023-05-03T20:51:13.491Z,12.24
2023-05-03T20:53:40.389Z,12.28
2023-05-03T20:56:08.047Z,12.31
2023-05-03T20:58:35.129Z,12.21
2023-05-03T21:01:06.622Z,12.24
2023-05-03T21:03:33.779Z,12.26
2023-05-03T21:06:00.891Z,12.24
2023-05-03T21:08:27.817Z,12.24
2023-05-03T21:10:55.171Z,12.20
2023-05-03T21:13:22.212Z,12.09
2023-05-03T21:15:50.826Z,12.06
2023-05-03T21:18:18.783Z,12.11
2023-05-03T21:20:45.906Z,12.12
2023-05-03T21:23:13.488Z,12.09
2023-05-03T21:25:40.462Z,12.09
2023-05-03T21:28:07.435Z,12.10
2023-05-03T21:30:34.371Z,12.13
2023-05-03T21:33:01.251Z,12.15
2023-05-03T21:35:28.296Z,12.16
2023-05-03T21:37:55.169Z,12.14
2023-05-03T21:40:22.643Z,12.17
2023-05-03T21:42:50.979Z,12.14
2023-05-03T21:45:17.938Z,12.15
2023-05-03T21:47:45.134Z,12.12
2023-05-03T21:50:13.044Z,12.11
2023-05-03T21:52:40.558Z,12.14
2023-05-03T21:55:08.469Z,12.18
2023-05-03T21:57:35.722Z,12.23
2023-05-03T22:00:02.760Z,12.22
2023-05-03T22:02:35.417Z,12.20
2023-05-03T22:05:02.793Z,12.22
2023-05-03T22:07:29.825Z,12.23
2023-05-03T22:09:56.736Z,12.26
2023-05-03T22:12:24.784Z,12.18
2023-05-03T22:14:52.853Z,12.16
2023-05-03T22:17:19.931Z,12.11
2023-05-03T22:19:47.129Z,12.03
2023-05-03T22:22:14.068Z,11.99
2023-05-03T22:24:41.323Z,11.94
2023-05-03T22:27:08.298Z,11.82
2023-05-03T22:29:35.178Z,11.83
2023-05-03T22:32:02.961Z,11.74
2023-05-03T22:34:30.000Z,11.76
2023-05-03T22:36:57.062Z,11.74
2023-05-03T22:39:24.011Z,11.67
2023-05-03T22:41:50.902Z,11.62
2023-05-03T22:44:17.987Z,11.59
2023-05-03T22:46:44.948Z,11.58
2023-05-03T22:49:11.920Z,11.50
2023-05-03T22:51:38.888Z,11.41
2023-05-03T22:54:05.964Z,11.26
2023-05-03T22:56:33.153Z,11.20
2023-05-03T22:58:59.988Z,11.24
2023-05-03T23:01:27.030Z,11.21
2023-05-03T23:03:54.104Z,11.23
2023-05-03T23:06:21.156Z,11.25
2023-05-03T23:08:48.052Z,11.22
2023-05-03T23:11:15.188Z,11.21
2023-05-03T23:13:42.298Z,11.12
2023-05-03T23:16:09.533Z,11.09
2023-05-03T23:18:36.882Z,11.16
2023-05-03T23:21:04.446Z,11.22
2023-05-03T23:23:31.511Z,11.34
2023-05-03T23:25:58.386Z,11.33
2023-05-03T23:28:26.104Z,11.31
2023-05-03T23:30:53.474Z,11.46
2023-05-03T23:33:20.928Z,11.43
2023-05-03T23:35:48.869Z,11.38
2023-05-03T23:38:15.866Z,11.33
2023-05-03T23:40:42.753Z,11.36
2023-05-03T23:43:09.655Z,11.34
2023-05-03T23:45:36.628Z,11.35
2023-05-03T23:48:03.646Z,11.32
2023-05-03T23:50:30.904Z,11.32
2023-05-03T23:52:58.798Z,11.39
2023-05-03T23:55:25.706Z,11.44
2023-05-03T23:57:52.667Z,11.43
